Time;durP1;ratioP1;P1;durP2;ratioP2;P2;SDS_P1;SDS_P2;PMS_P1;PMS_P2;Temp;Humidity;BMP_temperature;BMP_pressure;BME280_temperature;BME280_humidity;BME280_pressure;Samples;Min_cycle;Max_cycle;Signal;HPM_P1;HPM_P2
2023/01/28 00:00:01;;;;;;;;;;;;;;;;;;2081562;28;20488;-94
2023/01/28 00:01:09;;;;;;;8.63;6.03;;;;;;;;;;2072655;28;20009;-94
2023/01/28 00:02:14;;;;;;;8.60;6.55;;;;;;;;;;2084203;28;20021;-94
2023/01/28 00:03:16;;;;;;;7.47;6.68;;;;;;;;;;2081547;28;20033;-95
2023/01/28 00:04:17;;;;;;;8.77;6.80;;;;;;;;;;2080918;28;20072;-95
2023/01/28 00:05:17;;;;;;;;;;;;;;;;;;2081500;28;20061;-95
2023/01/28 00:06:18;;;;;;;8.03;7.00;;;;;;;;;;2080985;28;19913;-93
2023/01/28 00:07:18;;;;;;;7.20;6.22;;;;;;;;;;2072725;28;20026;-95
2023/01/28 00:08:18;;;;;;;8.88;7.05;;;;;;;;;;2072541;28;20057;-93
2023/01/28 00:09:19;;;;;;;;;;;;;;;;;;2073113;28;20038;-93
2023/01/28 00:10:19;;;;;;;8.13;6.80;;;;;;;;;;2072649;28;20012;-93
2023/01/28 00:11:21;;;;;;;;;;;;;;;;;;2072987;28;20076;-93
2023/01/28 00:12:24;;;;;;;8.10;6.32;;;;;;;;;;2081108;28;19909;-94
2023/01/28 00:13:24;;;;;;;10.13;6.57;;;;;;;;;;2081200;28;20029;-95
2023/01/28 00:14:24;;;;;;;;;;;;;;;;;;2088436;28;20043;-94
2023/01/28 00:15:25;;;;;;;9.87;7.43;;;;;;;;;;2081983;28;19939;-94
2023/01/28 00:16:26;;;;;;;;;;;;;;;;;;2082888;28;20018;-93
2023/01/28 00:17:27;;;;;;;8.55;6.22;;;;;;;;;;2078456;28;19917;-94
2023/01/28 00:18:28;;;;;;;;;;;;;;;;;;2085645;28;20040;-94
2023/01/28 00:19:28;;;;;;;7.75;6.20;;;;;;;;;;2087980;28;19977;-94
2023/01/28 00:20:29;;;;;;;;;;;;;;;;;;2086371;28;20449;-92
2023/01/28 00:21:29;;;;;;;8.10;6.80;;;;;;;;;;2087056;28;19909;-93
2023/01/28 00:22:30;;;;;;;8.57;6.95;;;;;;;;;;2086614;28;20086;-93
2023/01/28 00:23:33;;;;;;;7.78;6.45;;;;;;;;;;2076898;28;20026;-92
2023/01/28 00:24:34;;;;;;;8.70;7.32;;;;;;;;;;2081276;28;20075;-92
2023/01/28 00:25:34;;;;;;;;;;;;;;;;;;2082743;28;20455;-94
2023/01/28 00:26:36;;;;;;;10.70;7.20;;;;;;;;;;2081812;28;19910;-93
2023/01/28 00:27:36;;;;;;;;;;;;;;;;;;2081591;28;20286;-94
2023/01/28 00:28:37;;;;;;;9.40;7.40;;;;;;;;;;2072981;28;19909;-94
2023/01/28 00:29:37;;;;;;;;;;;;;;;;;;2073286;28;20037;-92
2023/01/28 00:30:37;;;;;;;9.90;7.20;;;;;;;;;;2081866;28;19938;-93
2023/01/28 00:31:39;;;;;;;11.50;7.65;;;;;;;;;;2072206;28;20029;-92
2023/01/28 00:32:40;;;;;;;8.77;7.00;;;;;;;;;;2072844;28;20029;-93
2023/01/28 00:33:41;;;;;;;11.93;7.68;;;;;;;;;;1718604;28;10227358;-92
2023/01/28 00:34:41;;;;;;;;;;;;;;;;;;2088945;28;20126;-93
2023/01/28 00:35:45;;;;;;;10.63;7.27;;;;;;;;;;2091096;28;19988;-93
2023/01/28 00:36:53;;;;;;;9.88;7.80;;;;;;;;;;2089410;28;20156;-95
2023/01/28 00:37:56;;;;;;;10.43;7.72;;;;;;;;;;2084513;28;20029;-95
2023/01/28 00:38:58;;;;;;;10.40;7.47;;;;;;;;;;2075507;28;20049;-95
2023/01/28 00:39:59;;;;;;;10.00;7.20;;;;;;;;;;2074700;28;20022;-94
2023/01/28 00:41:14;;;;;;;;;;;;;;;;;;2075162;28;20060;-94
2023/01/28 00:42:15;;;;;;;11.63;7.88;;;;;;;;;;2076330;28;19913;-94
2023/01/28 00:43:15;;;;;;;;;;;;;;;;;;2075318;28;20048;-94
2023/01/28 00:44:16;;;;;;;11.73;8.20;;;;;;;;;;2085003;28;19940;-95
2023/01/28 00:45:17;;;;;;;;;;;;;;;;;;2084540;28;20196;-94
2023/01/28 00:46:20;;;;;;;11.67;7.63;;;;;;;;;;2083826;28;19913;-95
2023/01/28 00:47:21;;;;;;;11.50;8.48;;;;;;;;;;2076856;28;20080;-94
2023/01/28 00:48:21;;;;;;;;;;;;;;;;;;2083909;28;20192;-95
2023/01/28 00:49:24;;;;;;;9.60;7.83;;;;;;;;;;2081808;28;19947;-96
2023/01/28 00:50:25;;;;;;;12.93;8.40;;;;;;;;;;2073145;28;20200;-96
2023/01/28 00:51:25;;;;;;;;;;;;;;;;;;2073376;28;20049;-95
2023/01/28 00:52:28;;;;;;;12.13;7.90;;;;;;;;;;2072618;28;19951;-94
2023/01/28 00:53:30;;;;;;;13.18;8.85;;;;;;;;;;2080858;28;20029;-94
2023/01/28 00:54:31;;;;;;;10.65;8.00;;;;;;;;;;2072959;28;20033;-93
2023/01/28 00:55:31;;;;;;;;;;;;;;;;;;2073260;28;20026;-94
2023/01/28 00:56:32;;;;;;;12.57;9.37;;;;;;;;;;2080974;28;20416;-94
2023/01/28 00:57:32;;;;;;;;;;;;;;;;;;2073370;28;20040;-94
2023/01/28 00:58:33;;;;;;;11.18;7.93;;;;;;;;;;2073024;28;19989;-94
2023/01/28 00:59:34;;;;;;;;;;;;;;;;;;2081210;28;20104;-93
2023/01/28 01:00:37;;;;;;;9.63;7.20;;;;;;;;;;2072727;28;20400;-96
2023/01/28 01:01:40;;;;;;;11.23;8.18;;;;;;;;;;2080635;28;20427;-94
2023/01/28 01:02:41;;;;;;;10.50;8.20;;;;;;;;;;2080015;28;20056;-93
2023/01/28 01:03:42;;;;;;;12.60;8.65;;;;;;;;;;2072182;28;20034;-93
2023/01/28 01:04:53;;;;;;;;;;;;;;;;;;2072339;28;20040;-91
2023/01/28 01:05:56;;;;;;;10.95;7.70;;;;;;;;;;2073122;28;20019;-92
2023/01/28 01:06:57;;;;;;;11.90;9.40;;;;;;;;;;2072045;28;20038;-94
2023/01/28 01:07:57;;;;;;;;;;;;;;;;;;2080928;28;20029;-92
2023/01/28 01:09:01;;;;;;;12.03;7.83;;;;;;;;;;2080388;28;19920;-92
2023/01/28 01:10:01;;;;;;;11.63;8.75;;;;;;;;;;2080106;28;20103;-91
2023/01/28 01:11:02;;;;;;;;;;;;;;;;;;2080988;28;20032;-91
2023/01/28 01:12:03;;;;;;;12.45;8.50;;;;;;;;;;2079906;28;19980;-91
2023/01/28 01:13:06;;;;;;;;;;;;;;;;;;2072227;28;20057;-92
2023/01/28 01:14:09;;;;;;;9.32;7.65;;;;;;;;;;2072133;28;19951;-91
2023/01/28 01:15:13;;;;;;;11.18;8.05;;;;;;;;;;2080090;28;20511;-91
2023/01/28 01:16:15;;;;;;;10.10;7.57;;;;;;;;;;2080472;28;20033;-93
2023/01/28 01:17:20;;;;;;;10.82;8.02;;;;;;;;;;2083307;28;20171;-93
2023/01/28 01:18:22;;;;;;;10.73;8.68;;;;;;;;;;2087646;28;20056;-93
2023/01/28 01:19:23;;;;;;;11.60;8.35;;;;;;;;;;2081060;28;20081;-93
2023/01/28 01:20:25;;;;;;;;;;;;;;;;;;2081143;28;20132;-92
2023/01/28 01:21:27;;;;;;;11.93;8.10;;;;;;;;;;2072472;28;19909;-94
2023/01/28 01:22:30;;;;;;;12.23;8.95;;;;;;;;;;2080663;28;20084;-94
2023/01/28 01:23:33;;;;;;;11.15;8.60;;;;;;;;;;2080109;28;20048;-94
2023/01/28 01:24:33;;;;;;;10.32;8.05;;;;;;;;;;2072453;28;20026;-92
2023/01/28 01:25:33;;;;;;;;;;;;;;;;;;2072703;28;20052;-94
2023/01/28 01:26:35;;;;;;;12.07;8.70;;;;;;;;;;2081427;28;19913;-95
2023/01/28 01:27:36;;;;;;;12.30;8.93;;;;;;;;;;2082819;28;20432;-93
2023/01/28 01:28:36;;;;;;;;;;;;;;;;;;2082273;28;20036;-92
2023/01/28 01:29:37;;;;;;;10.13;7.53;;;;;;;;;;2073198;28;19944;-91
2023/01/28 01:30:38;;;;;;;12.88;8.93;;;;;;;;;;2073395;28;20030;-93
2023/01/28 01:31:39;;;;;;;;;;;;;;;;;;2073861;28;20369;-92
2023/01/28 01:32:40;;;;;;;10.77;7.87;;;;;;;;;;2073625;28;19910;-93
2023/01/28 01:33:41;;;;;;;10.70;8.65;;;;;;;;;;2081889;28;20076;-92
2023/01/28 01:34:42;;;;;;;11.43;8.52;;;;;;;;;;2073441;28;20030;-92
2023/01/28 01:35:45;;;;;;;;;;;;;;;;;;2073685;28;20029;-93
2023/01/28 01:36:46;;;;;;;11.25;8.07;;;;;;;;;;2082551;28;19963;-96
2023/01/28 01:37:49;;;;;;;;;;;;;;;;;;2074910;28;20116;-94
2023/01/28 01:38:53;;;;;;;12.18;8.05;;;;;;;;;;2074788;28;20000;-94
2023/01/28 01:39:54;;;;;;;12.05;8.45;;;;;;;;;;2082516;28;20034;-94
2023/01/28 01:40:58;;;;;;;;;;;;;;;;;;2074702;28;20435;-92
2023/01/28 01:42:00;;;;;;;11.18;7.85;;;;;;;;;;2082536;28;19972;-95
2023/01/28 01:43:00;;;;;;;10.30;8.00;;;;;;;;;;2082399;28;20044;-95
2023/01/28 01:44:02;;;;;;;;;;;;;;;;;;2074676;28;20099;-93
2023/01/28 01:45:12;;;;;;;10.57;7.30;;;;;;;;;;2074239;28;19910;-92
2023/01/28 01:46:16;;;;;;;9.88;7.93;;;;;;;;;;2082069;28;20553;-92
2023/01/28 01:47:17;;;;;;;11.05;7.97;;;;;;;;;;2074061;28;20036;-95
2023/01/28 01:48:35;;;;;;;;;;;;;;;;;;2074485;28;20025;-93
2023/01/28 01:49:36;;;;;;;10.52;7.50;;;;;;;;;;2076188;28;20354;-93
2023/01/28 01:50:48;;;;;;;;;;;;;;;;;;1729280;28;10170197;-95
2023/01/28 01:52:00;;;;;;;10.65;7.70;;;;;;;;;;2082098;28;19913;-92
2023/01/28 01:53:10;;;;;;;9.70;8.10;;;;;;;;;;2082663;28;20021;-95
2023/01/28 01:54:13;;;;;;;10.35;7.85;;;;;;;;;;2075196;28;20057;-93
2023/01/28 01:55:17;;;;;;;9.77;7.70;;;;;;;;;;2073933;28;20022;-93
2023/01/28 01:56:22;;;;;;;10.30;7.95;;;;;;;;;;2074735;28;20064;-94
2023/01/28 01:57:29;;;;;;;9.32;7.32;;;;;;;;;;2075105;28;20032;-95
2023/01/28 01:58:34;;;;;;;10.13;7.57;;;;;;;;;;2075119;28;20121;-95
2023/01/28 01:59:39;;;;;;;9.50;7.43;;;;;;;;;;2081985;28;20037;-94
2023/01/28 02:00:40;;;;;;;9.77;7.10;;;;;;;;;;2074455;28;20097;-95
2023/01/28 02:01:44;;;;;;;8.55;7.00;;;;;;;;;;2082296;28;20041;-95
2023/01/28 02:02:47;;;;;;;8.02;7.10;;;;;;;;;;2082011;28;20030;-95
2023/01/28 02:03:54;;;;;;;11.13;7.75;;;;;;;;;;2074230;28;20204;-94
2023/01/28 02:04:57;;;;;;;10.32;7.28;;;;;;;;;;2074624;28;20109;-96
2023/01/28 02:05:57;;;;;;;10.10;8.05;;;;;;;;;;2074271;28;20072;-95
2023/01/28 02:06:59;;;;;;;;;;;;;;;;;;2074512;28;20026;-95
2023/01/28 02:09:30;;;;;;;10.55;7.43;;;;;;;;;;2082555;28;20045;-95
2023/01/28 02:10:31;;;;;;;9.27;7.43;;;;;;;;;;2082280;28;20029;-94
2023/01/28 02:11:33;;;;;;;10.32;8.00;;;;;;;;;;2082168;28;20030;-95
2023/01/28 02:12:41;;;;;;;10.70;7.53;;;;;;;;;;2086900;28;20025;-96
2023/01/28 02:13:49;;;;;;;11.60;8.10;;;;;;;;;;2089729;28;20062;-94
2023/01/28 02:15:17;;;;;;;10.73;7.95;;;;;;;;;;2083109;28;20550;-95
2023/01/28 02:16:18;;;;;;;11.43;8.43;;;;;;;;;;2079589;28;20033;-95
2023/01/28 02:17:19;;;;;;;;;;;;;;;;;;2074304;28;20040;-96
2023/01/28 02:18:19;;;;;;;9.25;7.72;;;;;;;;;;2073788;28;19910;-95
2023/01/28 02:19:21;;;;;;;;;;;;;;;;;;2082487;28;20079;-95
2023/01/28 02:20:26;;;;;;;12.85;8.88;;;;;;;;;;2074143;28;20004;-96
2023/01/28 02:22:14;;;;;;;13.30;9.60;;;;;;;;;;2082571;28;20033;-94
2023/01/28 02:23:36;;;;;;;16.15;9.90;;;;;;;;;;2053300;28;20499;-95
2023/01/28 02:24:46;;;;;;;16.40;11.18;;;;;;;;;;2080951;28;20026;-94
2023/01/28 02:26:18;;;;;;;14.65;10.20;;;;;;;;;;2089424;28;20055;-94
2023/01/28 02:27:54;;;;;;;12.02;9.43;;;;;;;;;;2094040;28;20357;-94
2023/01/28 02:29:18;;;;;;;13.38;10.10;;;;;;;;;;2084323;28;20128;-94
2023/01/28 02:30:32;;;;;;;15.82;10.73;;;;;;;;;;2076829;28;20029;-94
2023/01/28 02:31:51;;;;;;;14.52;10.48;;;;;;;;;;2075486;28;20373;-93
2023/01/28 02:33:17;;;;;;;13.73;10.44;;;;;;;;;;1666103;28;10003264;-94
2023/01/28 02:34:28;;;;;;;12.52;9.45;;;;;;;;;;1738201;28;10001137;-95
2023/01/28 02:35:47;;;;;;;15.13;10.40;;;;;;;;;;2081728;28;20029;-95
2023/01/28 02:36:53;;;;;;;14.73;10.35;;;;;;;;;;2075420;28;20034;-94
2023/01/28 02:38:22;;;;;;;14.43;10.38;;;;;;;;;;2073305;28;20100;-93
2023/01/28 02:39:33;;;;;;;14.18;10.93;;;;;;;;;;2081302;28;20037;-92
2023/01/28 02:42:01;;;;;;;14.32;10.25;;;;;;;;;;2081318;28;20037;-92
2023/01/28 02:43:04;;;;;;;16.65;10.48;;;;;;;;;;2080471;28;20025;-93
2023/01/28 02:44:04;;;;;;;14.52;10.43;;;;;;;;;;2073120;28;20059;-91
2023/01/28 02:45:15;;;;;;;;;;;;;;;;;;2081575;28;20021;-92
2023/01/28 02:47:58;;;;;;;15.85;10.60;;;;;;;;;;2081733;28;20073;-91
2023/01/28 02:49:00;;;;;;;15.57;10.75;;;;;;;;;;2084453;28;20110;-92
2023/01/28 02:50:19;;;;;;;14.60;10.18;;;;;;;;;;2088876;28;20021;-92
2023/01/28 02:51:44;;;;;;;10.90;8.20;;;;;;;;;;2081774;28;20096;-93
2023/01/28 02:54:34;;;;;;;13.95;9.27;;;;;;;;;;2081346;28;20025;-91
2023/01/28 02:55:44;;;;;;;12.27;9.18;;;;;;;;;;2081545;28;20044;-92
2023/01/28 02:57:04;;;;;;;13.73;9.73;;;;;;;;;;2080678;28;20058;-91
2023/01/28 02:58:33;;;;;;;13.95;9.77;;;;;;;;;;2075158;28;20356;-91
2023/01/28 03:00:14;;;;;;;14.75;9.98;;;;;;;;;;2080705;28;20025;-92
2023/01/28 03:01:24;;;;;;;14.43;10.65;;;;;;;;;;2070597;28;20041;-92
2023/01/28 03:02:29;;;;;;;15.05;9.70;;;;;;;;;;2068787;28;20041;-92
2023/01/28 03:03:41;;;;;;;14.88;10.32;;;;;;;;;;2073071;28;20030;-92
2023/01/28 03:05:03;;;;;;;13.80;10.00;;;;;;;;;;2080585;28;20108;-92
2023/01/28 03:06:09;;;;;;;14.35;9.73;;;;;;;;;;2080474;28;20037;-93
2023/01/28 03:07:13;;;;;;;12.55;9.50;;;;;;;;;;2080588;28;20452;-92
2023/01/28 03:09:34;;;;;;;11.13;9.02;;;;;;;;;;2085922;28;20033;-93
2023/01/28 03:10:36;;;;;;;14.27;8.90;;;;;;;;;;2081708;28;20035;-92
2023/01/28 03:36:58;;;;;;;;;;;;;;;;;;2088019;28;20116;-90
2023/01/28 03:38:00;;;;;;;;;;;;;;;;;;2086949;28;19936;-91
2023/01/28 03:39:01;;;;;;;10.68;8.05;;;;;;;;;;2084982;28;20007;-91
2023/01/28 03:40:05;;;;;;;10.18;7.25;;;;;;;;;;1726623;28;10245957;-91
2023/01/28 03:41:10;;;;;;;12.30;8.68;;;;;;;;;;1460938;28;10002096;-92
2023/01/28 03:42:13;;;;;;;13.23;9.95;;;;;;;;;;2072955;28;20239;-92
2023/01/28 03:45:45;;;;;;;12.30;8.85;;;;;;;;;;2089727;28;20024;-91
2023/01/28 03:46:47;;;;;;;12.38;9.20;;;;;;;;;;2089058;28;20028;-92
2023/01/28 03:47:48;;;;;;;13.75;10.48;;;;;;;;;;2081105;28;20049;-93
2023/01/28 03:48:48;;;;;;;;;;;;;;;;;;2081286;28;20181;-93
2023/01/28 03:49:51;;;;;;;12.80;9.53;;;;;;;;;;2080547;28;19908;-93
2023/01/28 03:50:53;;;;;;;13.30;9.82;;;;;;;;;;2089079;28;20032;-93
2023/01/28 03:51:56;;;;;;;14.38;9.60;;;;;;;;;;2088882;28;20494;-93
2023/01/28 03:53:10;;;;;;;13.65;9.93;;;;;;;;;;2080670;28;20055;-93
2023/01/28 03:54:12;;;;;;;10.43;9.18;;;;;;;;;;2082493;28;20029;-93
2023/01/28 03:55:13;;;;;;;11.75;9.57;;;;;;;;;;2081057;28;20452;-95
2023/01/28 03:56:17;;;;;;;;;;;;;;;;;;2089925;28;20028;-93
2023/01/28 03:57:19;;;;;;;14.25;10.30;;;;;;;;;;2089109;28;20003;-93
2023/01/28 03:58:22;;;;;;;14.63;10.45;;;;;;;;;;2080918;28;20021;-94
2023/01/28 03:59:23;;;;;;;15.88;10.65;;;;;;;;;;2088777;28;20484;-93
2023/01/28 04:00:26;;;;;;;;;;;;;;;;;;2089831;28;20032;-94
2023/01/28 04:01:29;;;;;;;14.50;9.43;;;;;;;;;;2089176;28;20339;-93
2023/01/28 04:02:30;;;;;;;15.30;10.10;;;;;;;;;;2081356;28;20079;-92
2023/01/28 04:03:34;;;;;;;15.15;10.05;;;;;;;;;;2090627;28;20102;-93
2023/01/28 04:04:41;;;;;;;15.18;10.35;;;;;;;;;;2089432;28;20040;-95
2023/01/28 04:06:01;;;;;;;15.60;11.50;;;;;;;;;;2082708;28;20029;-93
2023/01/28 04:07:02;;;;;;;13.30;9.16;;;;;;;;;;1734286;28;10002383;-91
2023/01/28 04:08:02;;;;;;;;;;;;;;;;;;2072741;28;20033;-93
2023/01/28 04:09:04;;;;;;;14.93;9.20;;;;;;;;;;2081938;28;19913;-91
2023/01/28 04:10:07;;;;;;;15.43;10.50;;;;;;;;;;2088308;28;20029;-91
2023/01/28 04:11:18;;;;;;;13.95;9.88;;;;;;;;;;2080631;28;20169;-93
2023/01/28 04:12:19;;;;;;;13.70;10.30;;;;;;;;;;2071616;28;20503;-92
2023/01/28 04:13:19;;;;;;;;;;;;;;;;;;2080816;28;20044;-92
2023/01/28 04:14:20;;;;;;;15.50;10.63;;;;;;;;;;2080627;28;20245;-93
2023/01/28 04:15:21;;;;;;;;;;;;;;;;;;2081660;28;20553;-93
2023/01/28 04:16:22;;;;;;;14.98;9.63;;;;;;;;;;2081740;28;20383;-91
2023/01/28 04:17:23;;;;;;;14.70;10.60;;;;;;;;;;2085123;28;20084;-91
2023/01/28 04:18:28;;;;;;;14.32;10.25;;;;;;;;;;2093970;28;20125;-91
2023/01/28 04:19:36;;;;;;;16.13;11.35;;;;;;;;;;2086568;28;20427;-92
2023/01/28 04:20:36;;;;;;;15.98;10.50;;;;;;;;;;2083499;28;20543;-93
2023/01/28 04:21:37;;;;;;;;;;;;;;;;;;2080653;28;20087;-93
2023/01/28 04:22:38;;;;;;;13.60;10.40;;;;;;;;;;2080154;28;19931;-92
2023/01/28 04:23:38;;;;;;;;;;;;;;;;;;2089150;28;20554;-92
2023/01/28 04:24:38;;;;;;;14.27;10.73;;;;;;;;;;2088108;28;19966;-92
2023/01/28 04:25:39;;;;;;;;;;;;;;;;;;2080384;28;20032;-92
2023/01/28 04:26:39;;;;;;;14.70;10.25;;;;;;;;;;1733243;28;10001842;-93
2023/01/28 04:27:45;;;;;;;14.00;11.10;;;;;;;;;;2088884;28;20121;-92
2023/01/28 04:28:46;;;;;;;16.80;11.65;;;;;;;;;;2080772;28;20037;-93
2023/01/28 04:29:46;;;;;;;;;;;;;;;;;;2080696;28;20039;-93
2023/01/28 04:30:46;;;;;;;13.67;10.10;;;;;;;;;;2079925;28;20339;-93
2023/01/28 04:31:47;;;;;;;15.52;11.32;;;;;;;;;;2088262;28;20044;-93
2023/01/28 04:32:49;;;;;;;;;;;;;;;;;;2080369;28;20503;-92
2023/01/28 04:33:49;;;;;;;;;;;;;;;;;;2080598;28;19956;-93
2023/01/28 04:34:50;;;;;;;14.23;9.83;;;;;;;;;;2088286;28;19999;-93
2023/01/28 04:35:50;;;;;;;;;;;;;;;;;;2080132;28;20037;-93
2023/01/28 04:36:51;;;;;;;14.30;9.90;;;;;;;;;;2087961;28;19909;-92
2023/01/28 04:37:51;;;;;;;;;;;;;;;;;;2089082;28;20036;-92
2023/01/28 04:38:52;;;;;;;17.17;11.00;;;;;;;;;;2088212;28;19917;-91
2023/01/28 04:39:52;;;;;;;;;;;;;;;;;;2088393;28;20369;-92
2023/01/28 04:40:53;;;;;;;16.03;10.50;;;;;;;;;;2088210;28;20307;-93
2023/01/28 04:41:57;;;;;;;16.90;11.82;;;;;;;;;;2079886;28;20041;-92
2023/01/28 04:42:57;;;;;;;17.48;12.63;;;;;;;;;;2080342;28;20400;-91
2023/01/28 04:43:57;;;;;;;;;;;;;;;;;;2088490;28;20115;-90
2023/01/28 04:44:58;;;;;;;17.90;11.73;;;;;;;;;;2087918;28;19958;-92
2023/01/28 04:45:58;;;;;;;;;;;;;;;;;;2088708;28;20075;-92
2023/01/28 04:46:59;;;;;;;17.13;12.27;;;;;;;;;;1720340;28;10000596;-92
2023/01/28 04:47:59;;;;;;;18.40;12.80;;;;;;;;;;2061816;28;20045;-92
2023/01/28 04:49:00;;;;;;;;;;;;;;;;;;2083199;28;20021;-93
2023/01/28 04:50:01;;;;;;;19.95;11.88;;;;;;;;;;2088316;28;20370;-92
2023/01/28 04:51:03;;;;;;;16.98;13.20;;;;;;;;;;2079946;28;20033;-92
2023/01/28 04:52:03;;;;;;;17.95;13.05;;;;;;;;;;2079461;28;20113;-93
2023/01/28 04:53:03;;;;;;;;;;;;;;;;;;2079953;28;20419;-91
2023/01/28 04:54:07;;;;;;;17.00;12.47;;;;;;;;;;2079733;28;19944;-91
2023/01/28 04:55:08;;;;;;;15.63;11.73;;;;;;;;;;2080011;28;20048;-91
2023/01/28 04:56:09;;;;;;;15.15;11.38;;;;;;;;;;2079618;28;20083;-91
2023/01/28 04:57:09;;;;;;;;;;;;;;;;;;2081903;28;20082;-94
2023/01/28 04:58:09;;;;;;;12.00;9.87;;;;;;;;;;2079898;28;19909;-91
2023/01/28 04:59:10;;;;;;;12.45;9.55;;;;;;;;;;2080731;28;20104;-91
2023/01/28 05:00:10;;;;;;;;;;;;;;;;;;2087153;28;20022;-91
2023/01/28 05:01:11;;;;;;;12.10;9.05;;;;;;;;;;2090142;28;20366;-91
2023/01/28 05:02:11;;;;;;;;;;;;;;;;;;2090358;28;20020;-91
2023/01/28 05:03:12;;;;;;;11.68;8.38;;;;;;;;;;2081374;28;19908;-92
2023/01/28 05:04:13;;;;;;;12.10;8.98;;;;;;;;;;2081335;28;20029;-91
2023/01/28 05:05:15;;;;;;;;;;;;;;;;;;2081671;28;20442;-92
2023/01/28 05:06:16;;;;;;;11.10;7.32;;;;;;;;;;2081671;28;20359;-91
2023/01/28 05:07:16;;;;;;;;;;;;;;;;;;2081591;28;20033;-91
2023/01/28 05:08:17;;;;;;;9.57;7.80;;;;;;;;;;2081044;28;19901;-91
2023/01/28 05:09:17;;;;;;;;;;;;;;;;;;2089538;28;20029;-92
2023/01/28 05:10:18;;;;;;;13.40;8.47;;;;;;;;;;2089474;28;19947;-91
2023/01/28 05:11:18;;;;;;;11.48;9.15;;;;;;;;;;2089748;28;20110;-92
2023/01/28 05:12:19;;;;;;;;;;;;;;;;;;2081511;28;20044;-91
2023/01/28 05:13:20;;;;;;;13.60;9.87;;;;;;;;;;2089517;28;19919;-91
2023/01/28 05:14:20;;;;;;;;;;;;;;;;;;2081760;28;20514;-92
2023/01/28 05:15:21;;;;;;;15.00;12.37;;;;;;;;;;2081255;28;19909;-91
2023/01/28 05:16:21;;;;;;;;;;;;;;;;;;2081283;28;20130;-91
2023/01/28 05:17:22;;;;;;;13.02;9.38;;;;;;;;;;2088945;28;19908;-90
2023/01/28 05:18:23;;;;;;;14.63;10.23;;;;;;;;;;2088873;28;20051;-90
2023/01/28 05:19:23;;;;;;;;;;;;;;;;;;2081310;28;20498;-90
2023/01/28 05:20:23;;;;;;;15.43;9.80;;;;;;;;;;2088865;28;19931;-89
2023/01/28 05:21:24;;;;;;;;;;;;;;;;;;2089403;28;20079;-90
2023/01/28 05:22:24;;;;;;;14.70;9.60;;;;;;;;;;2080681;28;19912;-90
2023/01/28 05:23:25;;;;;;;;;;;;;;;;;;2081226;28;20049;-90
2023/01/28 05:24:27;;;;;;;14.25;9.88;;;;;;;;;;2088903;28;19915;-90
2023/01/28 05:25:28;;;;;;;17.88;12.55;;;;;;;;;;2080891;28;20039;-91
2023/01/28 05:26:28;;;;;;;;;;;;;;;;;;2081188;28;20084;-91
2023/01/28 05:27:29;;;;;;;13.73;11.37;;;;;;;;;;2089208;28;19927;-91
2023/01/28 05:28:30;;;;;;;14.65;11.30;;;;;;;;;;2090078;28;20388;-91
2023/01/28 05:29:30;;;;;;;;;;;;;;;;;;2089638;28;20032;-91
2023/01/28 05:30:30;;;;;;;14.40;10.47;;;;;;;;;;2089207;28;19916;-92
2023/01/28 05:31:31;;;;;;;;;;;;;;;;;;2089314;28;20068;-91
2023/01/28 05:32:32;;;;;;;16.17;11.70;;;;;;;;;;2088863;28;19997;-91
2023/01/28 05:33:34;;;;;;;16.02;11.35;;;;;;;;;;2080652;28;20025;-91
2023/01/28 05:34:35;;;;;;;18.50;12.43;;;;;;;;;;2088882;28;20534;-91
2023/01/28 05:35:35;;;;;;;;;;;;;;;;;;2089333;28;20067;-91
2023/01/28 05:36:36;;;;;;;16.17;11.93;;;;;;;;;;2088887;28;19909;-93
2023/01/28 05:37:36;;;;;;;;;;;;;;;;;;2081579;28;20084;-91
2023/01/28 05:38:37;;;;;;;18.63;12.33;;;;;;;;;;2089698;28;19999;-91
2023/01/28 05:39:37;;;;;;;;;;;;;;;;;;2090152;28;20020;-93
2023/01/28 05:40:40;;;;;;;21.90;14.57;;;;;;;;;;2089818;28;20295;-93
2023/01/28 05:41:40;;;;;;;24.92;17.00;;;;;;;;;;2081915;28;20096;-92
2023/01/28 05:42:41;;;;;;;;;;;;;;;;;;2081553;28;20041;-93
2023/01/28 05:43:41;;;;;;;27.17;17.30;;;;;;;;;;2081077;28;20374;-92
2023/01/28 05:44:43;;;;;;;20.65;14.98;;;;;;;;;;2089494;28;20032;-92
2023/01/28 05:45:43;;;;;;;;;;;;;;;;;;2092002;28;20109;-93
2023/01/28 05:46:45;;;;;;;23.40;14.70;;;;;;;;;;2089994;28;19980;-93
2023/01/28 05:47:46;;;;;;;22.38;14.18;;;;;;;;;;2082087;28;20031;-93
2023/01/28 05:48:46;;;;;;;;;;;;;;;;;;2081980;28;20060;-93
2023/01/28 05:49:46;;;;;;;18.60;13.47;;;;;;;;;;2081821;28;19916;-92
2023/01/28 05:50:49;;;;;;;21.52;15.45;;;;;;;;;;2090056;28;20522;-94
2023/01/28 05:51:50;;;;;;;24.52;16.73;;;;;;;;;;2089812;28;20025;-93
2023/01/28 05:52:50;;;;;;;;;;;;;;;;;;2092578;28;20529;-93
2023/01/28 05:53:51;;;;;;;23.27;15.93;;;;;;;;;;2091597;28;20015;-93
2023/01/28 05:54:53;;;;;;;;;;;;;;;;;;2100070;28;20044;-92
2023/01/28 05:55:54;;;;;;;21.63;14.73;;;;;;;;;;2089288;28;19984;-92
2023/01/28 05:56:54;;;;;;;;;;;;;;;;;;2077235;28;20061;-93
2023/01/28 05:57:54;;;;;;;20.60;15.20;;;;;;;;;;2075832;28;19909;-92
2023/01/28 05:58:55;;;;;;;;;;;;;;;;;;2082885;28;20466;-93
2023/01/28 06:00:00;;;;;;;21.67;12.77;;;;;;;;;;2081864;28;19921;-94
2023/01/28 06:01:04;;;;;;;20.77;13.10;;;;;;;;;;2089637;28;20050;-91
2023/01/28 06:04:45;;;;;;;17.00;11.55;;;;;;;;;;2073598;28;20472;-91
2023/01/28 06:06:06;;;;;;;17.80;12.23;;;;;;;;;;2079904;28;20052;-91
2023/01/28 06:08:49;;;;;;;15.45;9.75;;;;;;;;;;2093248;28;20347;-93
2023/01/28 06:09:49;;;;;;;;;;;;;;;;;;2092804;28;20033;-91
2023/01/28 06:10:50;;;;;;;19.10;12.17;;;;;;;;;;2099437;28;19912;-92
2023/01/28 06:11:53;;;;;;;;;;;;;;;;;;2090903;28;20029;-91
2023/01/28 06:12:53;;;;;;;17.52;11.55;;;;;;;;;;2095222;28;19904;-93
2023/01/28 06:13:53;;;;;;;;;;;;;;;;;;2099536;28;20029;-91
2023/01/28 06:14:54;;;;;;;14.30;10.00;;;;;;;;;;2098736;28;19927;-91
2023/01/28 06:15:54;;;;;;;;;;;;;;;;;;2095679;28;20129;-91
2023/01/28 06:16:55;;;;;;;15.10;10.40;;;;;;;;;;2090172;28;20029;-91
2023/01/28 06:17:55;;;;;;;;;;;;;;;;;;2089128;28;20648;-90
2023/01/28 06:18:59;;;;;;;11.88;9.20;;;;;;;;;;2087665;28;19920;-91
2023/01/28 06:20:01;;;;;;;10.45;8.68;;;;;;;;;;2079752;28;20026;-91
2023/01/28 06:21:02;;;;;;;12.45;9.10;;;;;;;;;;2079550;28;20262;-90
2023/01/28 06:22:03;;;;;;;;;;;;;;;;;;2088614;28;20092;-89
2023/01/28 06:23:03;;;;;;;12.10;8.70;;;;;;;;;;2088239;28;19977;-91
2023/01/28 06:24:03;;;;;;;;;;;;;;;;;;2080666;28;20017;-90
2023/01/28 06:25:04;;;;;;;11.95;9.43;;;;;;;;;;2080190;28;19909;-91
2023/01/28 06:26:05;;;;;;;;;;;;;;;;;;2080723;28;20021;-93
2023/01/28 06:27:33;;;;;;;8.97;7.67;;;;;;;;;;2080028;28;20455;-92
2023/01/28 06:28:55;;;;;;;;;;;;;;;;;;;;;
2023/01/28 06:30:08;;;;;;;12.88;8.23;;;;;;;;;;2088258;28;20371;-92
2023/01/28 06:31:08;;;;;;;11.57;8.48;;;;;;;;;;2088212;28;20485;-91
2023/01/28 06:32:09;;;;;;;;;;;;;;;;;;2082182;28;20022;-92
2023/01/28 06:33:09;;;;;;;16.17;9.70;;;;;;;;;;2085600;28;19956;-91
2023/01/28 06:34:10;;;;;;;;;;;;;;;;;;2093144;28;20052;-92
2023/01/28 06:35:12;;;;;;;14.27;9.50;;;;;;;;;;2088296;28;19915;-91
2023/01/28 06:36:12;;;;;;;13.52;9.93;;;;;;;;;;2087797;28;20144;-92
2023/01/28 06:37:13;;;;;;;;;;;;;;;;;;2080007;28;20029;-91
2023/01/28 06:38:14;;;;;;;11.55;8.50;;;;;;;;;;2087324;28;19908;-91
2023/01/28 06:39:14;;;;;;;;;;;;;;;;;;2089188;28;20033;-91
2023/01/28 06:40:15;;;;;;;12.83;8.90;;;;;;;;;;2087859;28;20001;-91
2023/01/28 06:41:15;;;;;;;;;;;;;;;;;;2089648;28;20102;-90
2023/01/28 06:42:15;;;;;;;13.97;8.90;;;;;;;;;;2080376;28;19944;-91
2023/01/28 06:43:16;;;;;;;11.48;8.68;;;;;;;;;;2088932;28;20079;-93
2023/01/28 06:44:17;;;;;;;10.95;8.60;;;;;;;;;;2080938;28;20177;-93
2023/01/28 06:45:17;;;;;;;;;;;;;;;;;;2089812;28;20518;-93
2023/01/28 06:46:18;;;;;;;13.23;9.10;;;;;;;;;;2089183;28;19909;-92
2023/01/28 06:47:18;;;;;;;12.27;8.98;;;;;;;;;;2080588;28;20167;-90
2023/01/28 06:48:20;;;;;;;10.70;8.77;;;;;;;;;;2081006;28;20480;-93
2023/01/28 06:49:21;;;;;;;13.10;9.63;;;;;;;;;;2089606;28;20033;-93
2023/01/28 06:50:22;;;;;;;17.83;10.60;;;;;;;;;;2091892;28;20029;-93
2023/01/28 06:51:23;;;;;;;;;;;;;;;;;;2097642;28;20033;-92
2023/01/28 06:52:23;;;;;;;20.10;12.80;;;;;;;;;;2091705;28;19974;-93
2023/01/28 06:53:23;;;;;;;;;;;;;;;;;;2089545;28;20120;-91
2023/01/28 06:54:24;;;;;;;12.23;9.00;;;;;;;;;;2088212;28;19915;-91
2023/01/28 06:55:27;;;;;;;10.77;8.48;;;;;;;;;;2089416;28;20032;-93
2023/01/28 06:56:27;;;;;;;11.27;8.45;;;;;;;;;;2081487;28;20091;-94
2023/01/28 06:57:45;;;;;;;;;;;;;;;;;;;;;
2023/01/28 06:58:46;;;;;;;22.10;14.73;;;;;;;;;;2089557;28;19915;-93
2023/01/28 06:59:46;;;;;;;;;;;;;;;;;;2089178;28;20509;-90
2023/01/28 07:00:49;;;;;;;12.63;8.53;;;;;;;;;;2089297;28;19908;-93
2023/01/28 07:01:49;;;;;;;14.02;8.88;;;;;;;;;;2089446;28;20459;-93
2023/01/28 07:02:50;;;;;;;;;;;;;;;;;;2081500;28;20057;-93
2023/01/28 07:03:50;;;;;;;10.50;7.27;;;;;;;;;;2089064;28;19909;-93
2023/01/28 07:04:51;;;;;;;8.52;7.22;;;;;;;;;;2080895;28;20029;-93
2023/01/28 07:05:54;;;;;;;9.27;7.43;;;;;;;;;;2081150;28;20033;-93
2023/01/28 07:06:59;;;;;;;14.85;7.97;;;;;;;;;;2081366;28;20052;-92
2023/01/28 07:08:01;;;;;;;10.50;5.63;;;;;;;;;;2081605;28;20120;-91